sensor_id;sensor_type;location;lat;lon;timestamp;temperature;humidity
38902;DHT22;24661;53.566;9.910;2022-08-27T00:00:14;19.10;99.90
38902;DHT22;24661;53.566;9.910;2022-08-27T00:02:44;19.10;99.90
38902;DHT22;24661;53.566;9.910;2022-08-27T00:05:11;19.10;99.90
38902;DHT22;24661;53.566;9.910;2022-08-27T00:07:38;19.10;99.90
38902;DHT22;24661;53.566;9.910;2022-08-27T00:10:05;19.20;99.90
38902;DHT22;24661;53.566;9.910;2022-08-27T00:12:32;19.10;99.90
38902;DHT22;24661;53.566;9.910;2022-08-27T00:14:59;19.10;99.90
38902;DHT22;24661;53.566;9.910;2022-08-27T00:17:25;19.10;99.90
38902;DHT22;24661;53.566;9.910;2022-08-27T00:19:50;19.10;99.90
38902;DHT22;24661;53.566;9.910;2022-08-27T00:22:16;19.10;99.90
38902;DHT22;24661;53.566;9.910;2022-08-27T00:24:42;19.20;99.90
38902;DHT22;24661;53.566;9.910;2022-08-27T00:27:08;19.20;99.90
38902;DHT22;24661;53.566;9.910;2022-08-27T00:29:33;19.10;99.90
38902;DHT22;24661;53.566;9.910;2022-08-27T00:31:59;19.10;99.90
38902;DHT22;24661;53.566;9.910;2022-08-27T00:34:24;19.10;99.90
38902;DHT22;24661;53.566;9.910;2022-08-27T00:36:50;19.00;99.90
38902;DHT22;24661;53.566;9.910;2022-08-27T00:39:18;19.00;99.90
38902;DHT22;24661;53.566;9.910;2022-08-27T00:41:44;19.00;99.90
38902;DHT22;24661;53.566;9.910;2022-08-27T00:44:10;19.00;99.90
38902;DHT22;24661;53.566;9.910;2022-08-27T00:46:42;19.00;99.90
38902;DHT22;24661;53.566;9.910;2022-08-27T00:49:31;19.00;99.90
38902;DHT22;24661;53.566;9.910;2022-08-27T00:52:06;18.90;99.90
38902;DHT22;24661;53.566;9.910;2022-08-27T00:54:33;18.90;99.90
38902;DHT22;24661;53.566;9.910;2022-08-27T00:56:59;18.90;99.90
38902;DHT22;24661;53.566;9.910;2022-08-27T00:59:27;18.90;99.90
38902;DHT22;24661;53.566;9.910;2022-08-27T01:01:58;18.90;99.90
38902;DHT22;24661;53.566;9.910;2022-08-27T01:05:04;18.80;99.90
38902;DHT22;24661;53.566;9.910;2022-08-27T01:07:32;18.80;99.90
38902;DHT22;24661;53.566;9.910;2022-08-27T01:10:00;18.70;99.90
38902;DHT22;24661;53.566;9.910;2022-08-27T01:12:29;18.70;99.90
38902;DHT22;24661;53.566;9.910;2022-08-27T01:14:56;18.70;99.90
38902;DHT22;24661;53.566;9.910;2022-08-27T01:17:21;18.70;99.90
38902;DHT22;24661;53.566;9.910;2022-08-27T01:19:51;18.60;99.90
38902;DHT22;24661;53.566;9.910;2022-08-27T01:22:44;18.60;99.90
38902;DHT22;24661;53.566;9.910;2022-08-27T01:25:15;18.60;99.90
38902;DHT22;24661;53.566;9.910;2022-08-27T01:27:42;18.80;99.90
38902;DHT22;24661;53.566;9.910;2022-08-27T01:30:10;18.60;99.90
38902;DHT22;24661;53.566;9.910;2022-08-27T01:32:37;18.70;99.90
38902;DHT22;24661;53.566;9.910;2022-08-27T01:35:07;18.70;99.90
38902;DHT22;24661;53.566;9.910;2022-08-27T01:37:33;18.70;99.90
38902;DHT22;24661;53.566;9.910;2022-08-27T01:40:00;18.70;99.90
38902;DHT22;24661;53.566;9.910;2022-08-27T01:42:39;18.60;99.90
38902;DHT22;24661;53.566;9.910;2022-08-27T01:45:11;18.70;99.90
38902;DHT22;24661;53.566;9.910;2022-08-27T01:47:37;18.70;99.90
38902;DHT22;24661;53.566;9.910;2022-08-27T01:50:25;18.70;99.90
38902;DHT22;24661;53.566;9.910;2022-08-27T01:52:52;18.70;99.90
38902;DHT22;24661;53.566;9.910;2022-08-27T01:55:21;18.70;99.90
38902;DHT22;24661;53.566;9.910;2022-08-27T01:57:47;18.70;99.90
38902;DHT22;24661;53.566;9.910;2022-08-27T02:00:18;18.70;99.90
38902;DHT22;24661;53.566;9.910;2022-08-27T02:02:44;18.60;99.90
38902;DHT22;24661;53.566;9.910;2022-08-27T02:05:11;18.70;99.90
38902;DHT22;24661;53.566;9.910;2022-08-27T02:07:37;18.70;99.90
38902;DHT22;24661;53.566;9.910;2022-08-27T02:10:05;18.60;99.90
38902;DHT22;24661;53.566;9.910;2022-08-27T02:12:31;18.60;99.90
38902;DHT22;24661;53.566;9.910;2022-08-27T02:14:56;18.70;99.90
38902;DHT22;24661;53.566;9.910;2022-08-27T02:17:22;18.70;99.90
38902;DHT22;24661;53.566;9.910;2022-08-27T02:19:48;18.60;99.90
38902;DHT22;24661;53.566;9.910;2022-08-27T02:22:13;18.70;99.90
38902;DHT22;24661;53.566;9.910;2022-08-27T02:24:39;18.70;99.90
38902;DHT22;24661;53.566;9.910;2022-08-27T02:27:07;18.60;99.90
38902;DHT22;24661;53.566;9.910;2022-08-27T02:29:33;18.70;99.90
38902;DHT22;24661;53.566;9.910;2022-08-27T02:31:59;18.70;99.90
38902;DHT22;24661;53.566;9.910;2022-08-27T02:34:26;18.60;99.90
38902;DHT22;24661;53.566;9.910;2022-08-27T02:36:52;18.60;99.90
38902;DHT22;24661;53.566;9.910;2022-08-27T02:39:18;18.70;99.90
38902;DHT22;24661;53.566;9.910;2022-08-27T02:41:44;18.60;99.90
38902;DHT22;24661;53.566;9.910;2022-08-27T02:44:10;18.60;99.90
38902;DHT22;24661;53.566;9.910;2022-08-27T02:46:37;15.00;99.90
38902;DHT22;24661;53.566;9.910;2022-08-27T02:49:03;18.60;99.90
38902;DHT22;24661;53.566;9.910;2022-08-27T02:51:29;18.60;99.90
38902;DHT22;24661;53.566;9.910;2022-08-27T02:53:55;18.60;99.90
38902;DHT22;24661;53.566;9.910;2022-08-27T02:56:21;18.60;99.90
38902;DHT22;24661;53.566;9.910;2022-08-27T02:58:47;18.60;99.90
38902;DHT22;24661;53.566;9.910;2022-08-27T03:01:14;18.60;99.90
38902;DHT22;24661;53.566;9.910;2022-08-27T03:03:40;18.70;99.90
38902;DHT22;24661;53.566;9.910;2022-08-27T03:06:06;18.60;99.90
38902;DHT22;24661;53.566;9.910;2022-08-27T03:08:32;18.60;99.90
38902;DHT22;24661;53.566;9.910;2022-08-27T03:10:58;18.70;99.90
38902;DHT22;24661;53.566;9.910;2022-08-27T03:13:24;18.60;99.90
38902;DHT22;24661;53.566;9.910;2022-08-27T03:15:51;18.70;99.90
38902;DHT22;24661;53.566;9.910;2022-08-27T03:18:17;18.60;99.90
38902;DHT22;24661;53.566;9.910;2022-08-27T03:20:50;18.60;99.90
38902;DHT22;24661;53.566;9.910;2022-08-27T03:23:17;18.60;99.90
38902;DHT22;24661;53.566;9.910;2022-08-27T03:25:48;18.60;99.90
38902;DHT22;24661;53.566;9.910;2022-08-27T03:28:17;18.60;99.90
38902;DHT22;24661;53.566;9.910;2022-08-27T03:30:47;18.60;99.90
38902;DHT22;24661;53.566;9.910;2022-08-27T03:33:13;18.60;99.90
38902;DHT22;24661;53.566;9.910;2022-08-27T03:35:39;18.60;99.90
38902;DHT22;24661;53.566;9.910;2022-08-27T03:38:04;18.60;99.90
38902;DHT22;24661;53.566;9.910;2022-08-27T03:40:32;18.50;99.90
38902;DHT22;24661;53.566;9.910;2022-08-27T03:42:58;18.60;99.90
38902;DHT22;24661;53.566;9.910;2022-08-27T03:45:24;18.80;99.90
38902;DHT22;24661;53.566;9.910;2022-08-27T03:47:51;18.50;99.90
38902;DHT22;24661;53.566;9.910;2022-08-27T03:50:17;18.60;99.90
38902;DHT22;24661;53.566;9.910;2022-08-27T03:52:43;18.60;99.90
38902;DHT22;24661;53.566;9.910;2022-08-27T03:55:09;18.50;99.90
38902;DHT22;24661;53.566;9.910;2022-08-27T03:57:35;18.60;99.90
38902;DHT22;24661;53.566;9.910;2022-08-27T04:02:27;18.50;99.90
38902;DHT22;24661;53.566;9.910;2022-08-27T04:04:53;18.50;99.90
38902;DHT22;24661;53.566;9.910;2022-08-27T04:07:19;18.50;99.90
38902;DHT22;24661;53.566;9.910;2022-08-27T04:12:11;18.50;99.90
38902;DHT22;24661;53.566;9.910;2022-08-27T04:14:36;19.60;99.90
38902;DHT22;24661;53.566;9.910;2022-08-27T04:17:02;18.50;99.90
38902;DHT22;24661;53.566;9.910;2022-08-27T04:19:28;18.50;99.90
38902;DHT22;24661;53.566;9.910;2022-08-27T04:22:04;18.50;99.90
38902;DHT22;24661;53.566;9.910;2022-08-27T04:24:32;18.50;99.90
38902;DHT22;24661;53.566;9.910;2022-08-27T04:26:59;18.50;99.90
38902;DHT22;24661;53.566;9.910;2022-08-27T04:29:25;18.40;99.90
38902;DHT22;24661;53.566;9.910;2022-08-27T04:34:17;18.50;99.90
38902;DHT22;24661;53.566;9.910;2022-08-27T04:36:43;18.50;99.90
38902;DHT22;24661;53.566;9.910;2022-08-27T04:39:10;18.50;99.90
38902;DHT22;24661;53.566;9.910;2022-08-27T04:44:05;18.40;99.90
38902;DHT22;24661;53.566;9.910;2022-08-27T04:46:34;18.50;99.90
38902;DHT22;24661;53.566;9.910;2022-08-27T04:49:03;18.50;99.90
38902;DHT22;24661;53.566;9.910;2022-08-27T04:51:30;18.40;99.90
38902;DHT22;24661;53.566;9.910;2022-08-27T04:53:56;20.30;99.90
38902;DHT22;24661;53.566;9.910;2022-08-27T04:56:23;18.50;99.90
38902;DHT22;24661;53.566;9.910;2022-08-27T04:58:50;18.50;99.90
38902;DHT22;24661;53.566;9.910;2022-08-27T05:01:27;22.30;99.90
38902;DHT22;24661;53.566;9.910;2022-08-27T05:03:53;18.50;99.90
38902;DHT22;24661;53.566;9.910;2022-08-27T05:06:20;18.50;99.90
38902;DHT22;24661;53.566;9.910;2022-08-27T05:08:47;18.50;99.90
38902;DHT22;24661;53.566;9.910;2022-08-27T05:11:15;18.60;99.90
38902;DHT22;24661;53.566;9.910;2022-08-27T05:13:42;18.50;99.90
38902;DHT22;24661;53.566;9.910;2022-08-27T05:16:11;18.40;99.90
38902;DHT22;24661;53.566;9.910;2022-08-27T05:18:39;18.40;99.90
38902;DHT22;24661;53.566;9.910;2022-08-27T05:21:05;18.40;99.90
38902;DHT22;24661;53.566;9.910;2022-08-27T05:23:32;18.40;99.90
38902;DHT22;24661;53.566;9.910;2022-08-27T05:25:58;18.40;99.90
38902;DHT22;24661;53.566;9.910;2022-08-27T05:28:27;18.40;99.90
38902;DHT22;24661;53.566;9.910;2022-08-27T05:31:00;18.40;99.90
38902;DHT22;24661;53.566;9.910;2022-08-27T05:33:27;18.30;99.90
38902;DHT22;24661;53.566;9.910;2022-08-27T05:35:54;18.50;99.90
38902;DHT22;24661;53.566;9.910;2022-08-27T05:38:22;18.60;99.90
38902;DHT22;24661;53.566;9.910;2022-08-27T05:40:49;18.30;99.90
38902;DHT22;24661;53.566;9.910;2022-08-27T05:43:17;18.30;99.90
38902;DHT22;24661;53.566;9.910;2022-08-27T05:45:47;19.40;99.90
38902;DHT22;24661;53.566;9.910;2022-08-27T05:48:14;18.30;99.90
38902;DHT22;24661;53.566;9.910;2022-08-27T05:50:42;18.50;99.90
38902;DHT22;24661;53.566;9.910;2022-08-27T05:53:09;18.40;99.90
38902;DHT22;24661;53.566;9.910;2022-08-27T05:55:41;18.30;99.90
38902;DHT22;24661;53.566;9.910;2022-08-27T05:58:07;17.20;99.90
38902;DHT22;24661;53.566;9.910;2022-08-27T06:00:36;18.30;99.90
38902;DHT22;24661;53.566;9.910;2022-08-27T06:03:20;18.20;99.90
38902;DHT22;24661;53.566;9.910;2022-08-27T06:05:46;18.20;99.90
38902;DHT22;24661;53.566;9.910;2022-08-27T06:08:12;18.20;99.90
38902;DHT22;24661;53.566;9.910;2022-08-27T06:10:39;18.20;99.90
38902;DHT22;24661;53.566;9.910;2022-08-27T06:13:06;18.20;99.90
38902;DHT22;24661;53.566;9.910;2022-08-27T06:17:58;18.10;99.90
38902;DHT22;24661;53.566;9.910;2022-08-27T06:20:23;18.20;99.90
38902;DHT22;24661;53.566;9.910;2022-08-27T06:25:15;18.20;99.90
38902;DHT22;24661;53.566;9.910;2022-08-27T06:27:41;18.20;99.90
38902;DHT22;24661;53.566;9.910;2022-08-27T06:30:07;18.20;99.90
38902;DHT22;24661;53.566;9.910;2022-08-27T06:34:59;20.70;99.90
38902;DHT22;24661;53.566;9.910;2022-08-27T06:37:24;18.10;99.90
38902;DHT22;24661;53.566;9.910;2022-08-27T06:39:50;18.10;99.90
38902;DHT22;24661;53.566;9.910;2022-08-27T06:42:16;18.00;99.90
38902;DHT22;24661;53.566;9.910;2022-08-27T06:44:42;18.00;99.90
38902;DHT22;24661;53.566;9.910;2022-08-27T06:47:08;18.00;99.90
38902;DHT22;24661;53.566;9.910;2022-08-27T06:49:34;18.60;99.90
38902;DHT22;24661;53.566;9.910;2022-08-27T06:51:59;18.00;99.90
38902;DHT22;24661;53.566;9.910;2022-08-27T06:56:51;18.00;99.90
38902;DHT22;24661;53.566;9.910;2022-08-27T06:59:17;18.00;99.90
38902;DHT22;24661;53.566;9.910;2022-08-27T07:01:46;17.90;99.90
38902;DHT22;24661;53.566;9.910;2022-08-27T07:04:19;17.90;99.90
38902;DHT22;24661;53.566;9.910;2022-08-27T07:06:45;17.90;99.90
38902;DHT22;24661;53.566;9.910;2022-08-27T07:09:10;17.80;99.90
38902;DHT22;24661;53.566;9.910;2022-08-27T07:11:38;17.80;99.90
38902;DHT22;24661;53.566;9.910;2022-08-27T07:14:04;17.80;99.90
38902;DHT22;24661;53.566;9.910;2022-08-27T07:16:30;17.80;99.90
38902;DHT22;24661;53.566;9.910;2022-08-27T07:18:58;17.80;99.90
38902;DHT22;24661;53.566;9.910;2022-08-27T07:21:25;17.90;99.90
38902;DHT22;24661;53.566;9.910;2022-08-27T07:23:52;17.90;99.90
38902;DHT22;24661;53.566;9.910;2022-08-27T07:26:20;17.90;99.90
38902;DHT22;24661;53.566;9.910;2022-08-27T07:28:46;18.10;99.90
38902;DHT22;24661;53.566;9.910;2022-08-27T07:31:14;17.90;99.90
38902;DHT22;24661;53.566;9.910;2022-08-27T07:33:43;18.00;99.90
38902;DHT22;24661;53.566;9.910;2022-08-27T07:36:10;18.00;99.90
38902;DHT22;24661;53.566;9.910;2022-08-27T07:38:36;17.90;99.90
38902;DHT22;24661;53.566;9.910;2022-08-27T07:41:20;18.00;99.90
38902;DHT22;24661;53.566;9.910;2022-08-27T07:43:46;18.00;99.90
38902;DHT22;24661;53.566;9.910;2022-08-27T07:46:30;17.90;99.90
38902;DHT22;24661;53.566;9.910;2022-08-27T07:48:55;18.00;99.90
38902;DHT22;24661;53.566;9.910;2022-08-27T07:51:24;18.00;99.90
38902;DHT22;24661;53.566;9.910;2022-08-27T07:53:50;17.90;99.90
38902;DHT22;24661;53.566;9.910;2022-08-27T07:56:17;17.90;99.90
38902;DHT22;24661;53.566;9.910;2022-08-27T07:58:43;17.90;99.90
38902;DHT22;24661;53.566;9.910;2022-08-27T08:01:10;17.90;99.90
38902;DHT22;24661;53.566;9.910;2022-08-27T08:03:36;17.90;99.90
38902;DHT22;24661;53.566;9.910;2022-08-27T08:06:08;17.90;99.90
38902;DHT22;24661;53.566;9.910;2022-08-27T08:08:35;17.90;99.90
38902;DHT22;24661;53.566;9.910;2022-08-27T08:11:02;17.90;99.90
38902;DHT22;24661;53.566;9.910;2022-08-27T08:13:29;18.00;99.90
38902;DHT22;24661;53.566;9.910;2022-08-27T08:15:56;18.00;99.90
38902;DHT22;24661;53.566;9.910;2022-08-27T08:18:22;18.00;99.90
38902;DHT22;24661;53.566;9.910;2022-08-27T08:20:48;18.10;99.90
38902;DHT22;24661;53.566;9.910;2022-08-27T08:23:14;18.10;99.90
38902;DHT22;24661;53.566;9.910;2022-08-27T08:25:40;18.10;99.90
38902;DHT22;24661;53.566;9.910;2022-08-27T08:28:07;18.00;99.90
38902;DHT22;24661;53.566;9.910;2022-08-27T08:30:32;18.10;99.90
38902;DHT22;24661;53.566;9.910;2022-08-27T08:32:58;18.10;99.90
38902;DHT22;24661;53.566;9.910;2022-08-27T08:35:24;15.30;99.90
38902;DHT22;24661;53.566;9.910;2022-08-27T08:37:50;18.10;99.90
38902;DHT22;24661;53.566;9.910;2022-08-27T08:40:30;18.00;99.90
38902;DHT22;24661;53.566;9.910;2022-08-27T08:42:56;18.00;99.90
38902;DHT22;24661;53.566;9.910;2022-08-27T08:45:27;18.00;99.90
38902;DHT22;24661;53.566;9.910;2022-08-27T08:48:12;18.00;99.90
38902;DHT22;24661;53.566;9.910;2022-08-27T08:51:02;18.00;99.90
38902;DHT22;24661;53.566;9.910;2022-08-27T08:53:43;18.00;99.90
38902;DHT22;24661;53.566;9.910;2022-08-27T08:56:16;18.00;99.90
38902;DHT22;24661;53.566;9.910;2022-08-27T08:58:55;18.00;99.90
38902;DHT22;24661;53.566;9.910;2022-08-27T09:01:22;18.00;99.90
38902;DHT22;24661;53.566;9.910;2022-08-27T09:03:59;18.00;99.90
38902;DHT22;24661;53.566;9.910;2022-08-27T09:06:50;18.00;99.90
38902;DHT22;24661;53.566;9.910;2022-08-27T09:12:02;18.00;99.90
38902;DHT22;24661;53.566;9.910;2022-08-27T09:14:35;18.10;99.90
38902;DHT22;24661;53.566;9.910;2022-08-27T09:17:02;18.10;99.90
38902;DHT22;24661;53.566;9.910;2022-08-27T09:19:28;18.20;99.90
38902;DHT22;24661;53.566;9.910;2022-08-27T09:25:08;18.30;99.90
38902;DHT22;24661;53.566;9.910;2022-08-27T09:27:38;18.30;99.90
38902;DHT22;24661;53.566;9.910;2022-08-27T09:30:12;18.20;99.90
38902;DHT22;24661;53.566;9.910;2022-08-27T09:32:39;18.20;99.90
38902;DHT22;24661;53.566;9.910;2022-08-27T09:35:08;18.20;99.90
38902;DHT22;24661;53.566;9.910;2022-08-27T09:37:50;18.30;99.90
38902;DHT22;24661;53.566;9.910;2022-08-27T09:40:39;18.10;99.90
38902;DHT22;24661;53.566;9.910;2022-08-27T09:43:26;18.20;99.90
38902;DHT22;24661;53.566;9.910;2022-08-27T09:45:59;18.30;99.90
38902;DHT22;24661;53.566;9.910;2022-08-27T09:48:30;18.40;99.90
38902;DHT22;24661;53.566;9.910;2022-08-27T09:51:24;18.40;99.90
38902;DHT22;24661;53.566;9.910;2022-08-27T09:59:07;18.60;99.90
38902;DHT22;24661;53.566;9.910;2022-08-27T10:01:47;18.50;99.90
38902;DHT22;24661;53.566;9.910;2022-08-27T10:04:16;18.50;99.90
38902;DHT22;24661;53.566;9.910;2022-08-27T10:06:46;18.70;99.90
38902;DHT22;24661;53.566;9.910;2022-08-27T10:09:27;18.50;99.90
38902;DHT22;24661;53.566;9.910;2022-08-27T10:12:02;18.60;99.90
38902;DHT22;24661;53.566;9.910;2022-08-27T10:14:42;18.80;99.90
38902;DHT22;24661;53.566;9.910;2022-08-27T10:17:15;18.80;99.90
38902;DHT22;24661;53.566;9.910;2022-08-27T10:19:46;18.90;99.90
38902;DHT22;24661;53.566;9.910;2022-08-27T10:22:51;18.90;99.90
38902;DHT22;24661;53.566;9.910;2022-08-27T10:25:42;19.00;99.90
38902;DHT22;24661;53.566;9.910;2022-08-27T10:28:21;19.10;99.90
38902;DHT22;24661;53.566;9.910;2022-08-27T10:39:25;19.30;99.90
38902;DHT22;24661;53.566;9.910;2022-08-27T10:42:38;19.30;99.90
38902;DHT22;24661;53.566;9.910;2022-08-27T10:45:45;19.40;99.90
38902;DHT22;24661;53.566;9.910;2022-08-27T10:51:08;19.40;99.90
38902;DHT22;24661;53.566;9.910;2022-08-27T10:53:51;19.50;99.90
38902;DHT22;24661;53.566;9.910;2022-08-27T10:59:23;19.20;99.90
38902;DHT22;24661;53.566;9.910;2022-08-27T11:02:07;19.30;99.90
38902;DHT22;24661;53.566;9.910;2022-08-27T11:04:41;19.30;99.90
38902;DHT22;24661;53.566;9.910;2022-08-27T11:07:23;19.30;99.90
38902;DHT22;24661;53.566;9.910;2022-08-27T11:10:03;19.30;99.90
38902;DHT22;24661;53.566;9.910;2022-08-27T11:12:38;19.30;99.90
38902;DHT22;24661;53.566;9.910;2022-08-27T11:15:16;19.30;99.90
38902;DHT22;24661;53.566;9.910;2022-08-27T11:20:42;19.30;99.90
38902;DHT22;24661;53.566;9.910;2022-08-27T11:23:17;19.40;99.90
38902;DHT22;24661;53.566;9.910;2022-08-27T11:25:54;19.50;99.90
38902;DHT22;24661;53.566;9.910;2022-08-27T11:28:43;19.50;99.90
38902;DHT22;24661;53.566;9.910;2022-08-27T11:34:09;19.70;99.90
38902;DHT22;24661;53.566;9.910;2022-08-27T11:45:30;20.10;99.90
38902;DHT22;24661;53.566;9.910;2022-08-27T11:48:01;20.20;99.90
38902;DHT22;24661;53.566;9.910;2022-08-27T11:50:29;20.20;99.90
38902;DHT22;24661;53.566;9.910;2022-08-27T11:53:00;20.30;99.90
38902;DHT22;24661;53.566;9.910;2022-08-27T11:55:32;20.30;99.90
38902;DHT22;24661;53.566;9.910;2022-08-27T11:58:24;20.30;99.90
38902;DHT22;24661;53.566;9.910;2022-08-27T12:00:51;20.50;99.90
38902;DHT22;24661;53.566;9.910;2022-08-27T12:05:48;20.70;99.90
38902;DHT22;24661;53.566;9.910;2022-08-27T12:08:32;20.70;99.90
38902;DHT22;24661;53.566;9.910;2022-08-27T12:16:53;21.10;99.90
38902;DHT22;24661;53.566;9.910;2022-08-27T12:22:17;21.20;99.90
38902;DHT22;24661;53.566;9.910;2022-08-27T12:24:54;21.20;99.90
38902;DHT22;24661;53.566;9.910;2022-08-27T12:30:22;21.20;99.90
38902;DHT22;24661;53.566;9.910;2022-08-27T12:32:52;21.10;99.90
38902;DHT22;24661;53.566;9.910;2022-08-27T12:35:46;21.20;99.90
38902;DHT22;24661;53.566;9.910;2022-08-27T12:38:19;21.40;99.90
38902;DHT22;24661;53.566;9.910;2022-08-27T12:40:53;21.50;99.90
38902;DHT22;24661;53.566;9.910;2022-08-27T12:43:25;21.70;99.90
38902;DHT22;24661;53.566;9.910;2022-08-27T12:46:16;21.90;99.90
38902;DHT22;24661;53.566;9.910;2022-08-27T12:48:47;22.00;99.90
38902;DHT22;24661;53.566;9.910;2022-08-27T12:51:26;22.00;99.90
38902;DHT22;24661;53.566;9.910;2022-08-27T12:53:57;22.10;99.90
38902;DHT22;24661;53.566;9.910;2022-08-27T13:04:46;22.60;99.90
38902;DHT22;24661;53.566;9.910;2022-08-27T13:07:24;22.70;99.90
38902;DHT22;24661;53.566;9.910;2022-08-27T13:09:49;22.70;99.90
38902;DHT22;24661;53.566;9.910;2022-08-27T13:12:17;22.90;99.90
38902;DHT22;24661;53.566;9.910;2022-08-27T13:14:43;23.10;99.90
38902;DHT22;24661;53.566;9.910;2022-08-27T13:17:15;23.30;99.90
38902;DHT22;24661;53.566;9.910;2022-08-27T13:19:49;23.40;99.90
38902;DHT22;24661;53.566;9.910;2022-08-27T13:22:44;23.50;99.90
38902;DHT22;24661;53.566;9.910;2022-08-27T13:25:26;23.40;99.90
38902;DHT22;24661;53.566;9.910;2022-08-27T13:27:58;23.60;99.90
38902;DHT22;24661;53.566;9.910;2022-08-27T13:30:27;23.60;99.90
38902;DHT22;24661;53.566;9.910;2022-08-27T13:32:54;23.90;99.90
38902;DHT22;24661;53.566;9.910;2022-08-27T13:35:21;24.00;99.90
38902;DHT22;24661;53.566;9.910;2022-08-27T13:37:51;24.20;99.90
38902;DHT22;24661;53.566;9.910;2022-08-27T13:40:29;24.40;99.90
38902;DHT22;24661;53.566;9.910;2022-08-27T13:43:01;24.60;99.90
38902;DHT22;24661;53.566;9.910;2022-08-27T13:45:27;24.50;99.90
38902;DHT22;24661;53.566;9.910;2022-08-27T13:47:53;24.70;99.90
38902;DHT22;24661;53.566;9.910;2022-08-27T13:50:30;24.80;99.90
38902;DHT22;24661;53.566;9.910;2022-08-27T13:53:11;25.20;99.90
38902;DHT22;24661;53.566;9.910;2022-08-27T13:56:02;25.30;99.90
38902;DHT22;24661;53.566;9.910;2022-08-27T13:58:30;25.40;99.90
38902;DHT22;24661;53.566;9.910;2022-08-27T14:01:28;25.50;99.90
38902;DHT22;24661;53.566;9.910;2022-08-27T14:04:05;25.20;99.90
38902;DHT22;24661;53.566;9.910;2022-08-27T14:06:43;25.10;99.90
38902;DHT22;24661;53.566;9.910;2022-08-27T14:09:26;25.10;99.90
38902;DHT22;24661;53.566;9.910;2022-08-27T14:12:07;25.00;99.90
38902;DHT22;24661;53.566;9.910;2022-08-27T14:14:39;24.90;99.90
38902;DHT22;24661;53.566;9.910;2022-08-27T14:17:18;24.60;99.90
38902;DHT22;24661;53.566;9.910;2022-08-27T14:19:45;24.50;99.90
38902;DHT22;24661;53.566;9.910;2022-08-27T14:22:12;24.40;99.90
38902;DHT22;24661;53.566;9.910;2022-08-27T14:24:38;22.40;99.90
38902;DHT22;24661;53.566;9.910;2022-08-27T14:27:08;23.90;99.90
38902;DHT22;24661;53.566;9.910;2022-08-27T14:29:35;23.90;99.90
38902;DHT22;24661;53.566;9.910;2022-08-27T14:32:02;23.80;99.90
38902;DHT22;24661;53.566;9.910;2022-08-27T14:34:28;23.80;99.90
38902;DHT22;24661;53.566;9.910;2022-08-27T14:36:54;23.70;99.90
38902;DHT22;24661;53.566;9.910;2022-08-27T14:39:21;23.50;99.90
38902;DHT22;24661;53.566;9.910;2022-08-27T14:41:46;24.80;99.90
38902;DHT22;24661;53.566;9.910;2022-08-27T14:44:12;23.10;99.90
38902;DHT22;24661;53.566;9.910;2022-08-27T14:46:39;23.00;99.90
38902;DHT22;24661;53.566;9.910;2022-08-27T14:49:11;22.90;99.90
38902;DHT22;24661;53.566;9.910;2022-08-27T14:51:39;23.00;99.90
38902;DHT22;24661;53.566;9.910;2022-08-27T14:54:06;22.90;99.90
38902;DHT22;24661;53.566;9.910;2022-08-27T14:56:32;23.00;99.90
38902;DHT22;24661;53.566;9.910;2022-08-27T14:58:58;22.90;99.90
38902;DHT22;24661;53.566;9.910;2022-08-27T15:01:24;22.90;99.90
38902;DHT22;24661;53.566;9.910;2022-08-27T15:03:50;22.80;99.90
38902;DHT22;24661;53.566;9.910;2022-08-27T15:06:17;22.90;99.90
38902;DHT22;24661;53.566;9.910;2022-08-27T15:08:44;22.80;99.90
38902;DHT22;24661;53.566;9.910;2022-08-27T15:11:24;22.70;99.90
38902;DHT22;24661;53.566;9.910;2022-08-27T15:13:51;22.70;99.90
38902;DHT22;24661;53.566;9.910;2022-08-27T15:16:35;22.60;99.90
38902;DHT22;24661;53.566;9.910;2022-08-27T15:19:03;22.50;99.90
38902;DHT22;24661;53.566;9.910;2022-08-27T15:21:32;22.50;99.90
38902;DHT22;24661;53.566;9.910;2022-08-27T15:24:01;20.90;99.90
38902;DHT22;24661;53.566;9.910;2022-08-27T15:26:28;22.40;99.90
38902;DHT22;24661;53.566;9.910;2022-08-27T15:28:54;22.40;99.90
38902;DHT22;24661;53.566;9.910;2022-08-27T15:31:20;22.30;99.90
38902;DHT22;24661;53.566;9.910;2022-08-27T15:33:46;22.20;99.90
38902;DHT22;24661;53.566;9.910;2022-08-27T15:36:12;22.20;99.90
38902;DHT22;24661;53.566;9.910;2022-08-27T15:38:39;22.20;99.90
38902;DHT22;24661;53.566;9.910;2022-08-27T15:41:05;22.20;99.90
38902;DHT22;24661;53.566;9.910;2022-08-27T15:43:31;22.20;99.90
38902;DHT22;24661;53.566;9.910;2022-08-27T15:45:56;22.20;99.90
38902;DHT22;24661;53.566;9.910;2022-08-27T15:48:23;22.20;99.90
38902;DHT22;24661;53.566;9.910;2022-08-27T15:50:49;22.20;99.90
38902;DHT22;24661;53.566;9.910;2022-08-27T15:53:16;22.10;99.90
38902;DHT22;24661;53.566;9.910;2022-08-27T15:55:43;22.10;99.90
38902;DHT22;24661;53.566;9.910;2022-08-27T15:58:09;22.00;99.90
38902;DHT22;24661;53.566;9.910;2022-08-27T16:00:36;21.90;99.90
38902;DHT22;24661;53.566;9.910;2022-08-27T16:03:08;21.80;99.90
38902;DHT22;24661;53.566;9.910;2022-08-27T16:05:35;21.70;99.90
38902;DHT22;24661;53.566;9.910;2022-08-27T16:08:02;21.70;99.90
38902;DHT22;24661;53.566;9.910;2022-08-27T16:10:28;21.70;99.90
38902;DHT22;24661;53.566;9.910;2022-08-27T16:12:54;21.60;99.90
38902;DHT22;24661;53.566;9.910;2022-08-27T16:15:20;21.60;99.90
38902;DHT22;24661;53.566;9.910;2022-08-27T16:17:46;21.50;99.90
38902;DHT22;24661;53.566;9.910;2022-08-27T16:20:14;21.50;99.90
38902;DHT22;24661;53.566;9.910;2022-08-27T16:22:40;21.40;99.90
38902;DHT22;24661;53.566;9.910;2022-08-27T16:25:07;21.40;99.90
38902;DHT22;24661;53.566;9.910;2022-08-27T16:27:33;21.30;99.90
38902;DHT22;24661;53.566;9.910;2022-08-27T16:29:59;21.30;99.90
38902;DHT22;24661;53.566;9.910;2022-08-27T16:32:26;21.20;99.90
38902;DHT22;24661;53.566;9.910;2022-08-27T16:34:53;21.10;99.90
38902;DHT22;24661;53.566;9.910;2022-08-27T16:37:19;21.10;99.90
38902;DHT22;24661;53.566;9.910;2022-08-27T16:39:45;21.00;99.90
38902;DHT22;24661;53.566;9.910;2022-08-27T16:42:11;20.90;99.90
38902;DHT22;24661;53.566;9.910;2022-08-27T16:44:38;20.90;99.90
38902;DHT22;24661;53.566;9.910;2022-08-27T16:47:07;20.90;99.90
38902;DHT22;24661;53.566;9.910;2022-08-27T16:49:33;20.80;99.90
38902;DHT22;24661;53.566;9.910;2022-08-27T16:52:17;20.80;99.90
38902;DHT22;24661;53.566;9.910;2022-08-27T16:54:44;20.80;99.90
38902;DHT22;24661;53.566;9.910;2022-08-27T16:57:10;20.70;99.90
38902;DHT22;24661;53.566;9.910;2022-08-27T16:59:36;20.60;99.90
38902;DHT22;24661;53.566;9.910;2022-08-27T17:02:02;20.50;99.90
38902;DHT22;24661;53.566;9.910;2022-08-27T17:04:28;20.60;99.90
38902;DHT22;24661;53.566;9.910;2022-08-27T17:06:54;20.60;99.90
38902;DHT22;24661;53.566;9.910;2022-08-27T17:09:20;20.60;99.90